createdAt,value
2023-05-09T00:00:23.886Z,4.63
2023-05-09T00:01:25.813Z,4.97
2023-05-09T00:02:27.796Z,4.45
2023-05-09T00:03:29.739Z,4.11
2023-05-09T00:04:31.629Z,4.31
2023-05-09T00:05:33.576Z,4.34
2023-05-09T00:06:35.546Z,4.53
2023-05-09T00:07:37.451Z,4.94
2023-05-09T00:08:39.369Z,4.51
2023-05-09T00:09:41.266Z,4.97
2023-05-09T00:10:43.224Z,4.49
2023-05-09T00:11:45.278Z,3.85
2023-05-09T00:12:47.192Z,4.69
2023-05-09T00:13:50.005Z,4.32
2023-05-09T00:14:51.914Z,4.59
2023-05-09T00:15:53.771Z,4.97
2023-05-09T00:16:55.863Z,4.29
2023-05-09T00:17:57.847Z,4.15
2023-05-09T00:18:59.740Z,4.89
2023-05-09T00:20:02.079Z,4.69
2023-05-09T00:21:04.088Z,4.83
2023-05-09T00:22:05.947Z,4.07
2023-05-09T00:23:07.789Z,4.21
2023-05-09T00:24:09.656Z,4.88
2023-05-09T00:25:11.644Z,4.33
2023-05-09T00:26:13.984Z,4.37
2023-05-09T00:27:16.092Z,4.73
2023-05-09T00:28:17.936Z,4.96
2023-05-09T00:29:19.792Z,5.19
2023-05-09T00:30:21.763Z,4.27
2023-05-09T00:31:23.610Z,4.16
2023-05-09T00:32:25.538Z,4.08
2023-05-09T00:33:27.390Z,4.89
2023-05-09T00:34:29.251Z,4.43
2023-05-09T00:35:31.143Z,5.43
2023-05-09T00:36:33.129Z,4.66
2023-05-09T00:37:35.133Z,4.67
2023-05-09T00:38:37.293Z,4.64
2023-05-09T00:39:39.177Z,5.07
2023-05-09T00:40:41.119Z,5.60
2023-05-09T00:41:42.989Z,4.61
2023-05-09T00:42:45.425Z,4.79
2023-05-09T00:43:47.284Z,5.63
2023-05-09T00:44:49.226Z,4.93
2023-05-09T00:45:51.492Z,5.37
2023-05-09T00:46:54.549Z,4.36
2023-05-09T00:47:57.336Z,4.74
2023-05-09T00:49:00.026Z,4.55
2023-05-09T00:50:02.157Z,5.24
2023-05-09T00:51:04.125Z,4.26
2023-05-09T00:52:06.450Z,5.15
2023-05-09T00:53:09.712Z,5.28
2023-05-09T00:54:11.726Z,4.86
2023-05-09T00:55:15.296Z,4.75
2023-05-09T00:56:18.980Z,4.69
2023-05-09T00:57:22.158Z,4.83
2023-05-09T00:58:24.730Z,4.54
2023-05-09T00:59:27.678Z,6.05
2023-05-09T01:00:29.749Z,3.91
2023-05-09T01:01:31.874Z,4.87
2023-05-09T01:02:33.953Z,5.25
2023-05-09T01:03:39.965Z,5.06
2023-05-09T01:04:42.860Z,4.57
2023-05-09T01:06:05.454Z,4.25
2023-05-09T01:07:11.233Z,5.03
2023-05-09T01:08:26.147Z,5.56
2023-05-09T01:09:55.970Z,4.43
2023-05-09T01:11:10.825Z,5.23
2023-05-09T01:13:36.168Z,5.29
2023-05-09T01:14:53.366Z,4.92
2023-05-09T01:16:19.136Z,5.18
2023-05-09T01:17:30.736Z,5.03
2023-05-09T01:19:55.319Z,4.56
2023-05-09T01:21:06.779Z,4.71
2023-05-09T01:23:45.068Z,5.36
2023-05-09T01:25:12.375Z,4.93
2023-05-09T01:26:27.124Z,4.88
2023-05-09T01:27:58.737Z,4.86
2023-05-09T01:29:29.071Z,4.58
2023-05-09T01:30:33.930Z,4.76
2023-05-09T01:31:39.655Z,5.08
2023-05-09T01:32:42.852Z,4.72
2023-05-09T01:33:48.048Z,5.33
2023-05-09T01:34:53.673Z,4.82
2023-05-09T01:35:59.129Z,5.91
2023-05-09T01:37:04.143Z,5.45
2023-05-09T01:38:09.785Z,4.97
2023-05-09T01:39:13.957Z,4.51
2023-05-09T01:40:18.780Z,5.22
2023-05-09T01:41:23.227Z,5.16
2023-05-09T01:42:28.879Z,4.88
2023-05-09T01:43:32.975Z,4.37
2023-05-09T01:44:38.723Z,5.25
2023-05-09T01:45:42.415Z,5.28
2023-05-09T01:46:46.217Z,4.39
2023-05-09T01:47:49.562Z,4.57
2023-05-09T01:48:52.695Z,4.60
2023-05-09T01:49:55.274Z,5.33
2023-05-09T01:50:58.712Z,4.71
2023-05-09T01:52:08.919Z,4.42
2023-05-09T01:53:11.400Z,5.36
2023-05-09T01:54:14.376Z,5.43
2023-05-09T01:55:18.513Z,5.32
2023-05-09T01:56:22.782Z,4.34
2023-05-09T01:57:26.431Z,5.49
2023-05-09T01:58:30.550Z,4.45
2023-05-09T01:59:34.499Z,5.18
2023-05-09T02:00:37.370Z,4.47
2023-05-09T02:01:39.927Z,5.03
2023-05-09T02:02:42.663Z,4.98
2023-05-09T02:03:46.701Z,5.82
2023-05-09T02:04:49.769Z,4.85
2023-05-09T02:05:54.316Z,5.58
2023-05-09T02:06:57.913Z,4.35
2023-05-09T02:08:00.585Z,4.56
2023-05-09T02:09:02.703Z,4.67
2023-05-09T02:10:08.254Z,4.57
2023-05-09T02:11:10.365Z,5.16
2023-05-09T02:12:12.167Z,4.63
2023-05-09T02:13:14.626Z,4.53
2023-05-09T02:14:17.496Z,4.63
2023-05-09T02:15:20.564Z,4.54
2023-05-09T02:16:22.573Z,4.41
2023-05-09T02:17:24.777Z,4.33
2023-05-09T02:18:26.731Z,4.81
2023-05-09T02:19:28.614Z,4.28
2023-05-09T02:20:30.602Z,4.66
2023-05-09T02:21:32.767Z,5.10
2023-05-09T02:22:35.607Z,3.97
2023-05-09T02:23:37.978Z,4.25
2023-05-09T02:24:41.901Z,4.68
2023-05-09T02:25:45.396Z,4.22
2023-05-09T02:26:47.819Z,4.33
2023-05-09T02:27:51.388Z,4.33
2023-05-09T02:28:55.092Z,4.33
2023-05-09T02:29:59.047Z,4.94
2023-05-09T02:31:03.801Z,4.86
2023-05-09T02:32:10.577Z,4.69
2023-05-09T02:33:13.676Z,4.34
2023-05-09T02:34:16.387Z,4.72
2023-05-09T02:35:20.586Z,5.00
2023-05-09T02:36:23.696Z,4.33
2023-05-09T02:37:27.204Z,4.58
2023-05-09T02:38:29.274Z,4.03
2023-05-09T02:39:31.564Z,4.59
2023-05-09T02:40:33.596Z,4.25
2023-05-09T02:41:35.435Z,5.13
2023-05-09T02:42:37.295Z,3.99
2023-05-09T02:43:39.163Z,5.37
2023-05-09T02:44:41.592Z,4.72
2023-05-09T02:45:43.429Z,5.05
2023-05-09T02:46:45.664Z,4.49
2023-05-09T02:47:47.606Z,4.89
2023-05-09T02:48:49.625Z,4.48
2023-05-09T02:49:51.605Z,5.18
2023-05-09T02:50:53.648Z,4.87
2023-05-09T02:51:55.525Z,4.59
2023-05-09T02:52:57.375Z,4.69
2023-05-09T02:53:59.251Z,5.03
2023-05-09T02:55:01.535Z,4.53
2023-05-09T02:56:03.787Z,4.09
2023-05-09T02:57:06.093Z,4.67
2023-05-09T02:58:14.322Z,4.75
2023-05-09T02:59:11.892Z,4.59
2023-05-09T03:00:15.181Z,4.24
2023-05-09T03:01:17.510Z,4.65
2023-05-09T03:02:19.583Z,4.45
2023-05-09T03:03:22.343Z,4.71
2023-05-09T03:04:24.991Z,4.54
2023-05-09T03:05:27.232Z,4.65
2023-05-09T03:06:29.349Z,4.65
2023-05-09T03:07:31.229Z,4.05
2023-05-09T03:08:33.087Z,4.50
2023-05-09T03:09:34.936Z,5.01
2023-05-09T03:10:36.951Z,3.89
2023-05-09T03:11:38.784Z,3.95
2023-05-09T03:12:40.674Z,4.42
2023-05-09T03:13:42.562Z,4.29
2023-05-09T03:14:44.463Z,4.50
2023-05-09T03:15:46.304Z,5.01
2023-05-09T03:16:48.443Z,5.67
2023-05-09T03:17:50.454Z,4.41
2023-05-09T03:18:52.390Z,4.61
2023-05-09T03:19:54.322Z,4.29
2023-05-09T03:20:56.302Z,4.63
2023-05-09T03:21:58.197Z,4.79
2023-05-09T03:23:00.088Z,4.31
2023-05-09T03:24:02.010Z,4.51
2023-05-09T03:25:04.670Z,4.75
2023-05-09T03:26:06.896Z,4.86
2023-05-09T03:27:08.780Z,4.52
2023-05-09T03:28:10.630Z,5.03
2023-05-09T03:29:12.646Z,5.00
2023-05-09T03:30:15.020Z,6.55
2023-05-09T03:31:16.965Z,4.41
2023-05-09T03:32:18.806Z,3.98
2023-05-09T03:33:20.686Z,4.28
2023-05-09T03:34:22.580Z,4.84
2023-05-09T03:35:24.422Z,5.64
2023-05-09T03:36:26.431Z,4.58
2023-05-09T03:37:28.274Z,3.90
2023-05-09T03:38:30.224Z,4.12
2023-05-09T03:39:32.094Z,5.14
2023-05-09T03:40:34.100Z,4.41
2023-05-09T03:41:36.598Z,4.44
2023-05-09T03:42:38.495Z,4.83
2023-05-09T03:43:40.392Z,4.26
2023-05-09T03:44:42.247Z,4.38
2023-05-09T03:45:44.364Z,4.11
2023-05-09T03:46:46.928Z,4.65
2023-05-09T03:47:48.926Z,4.29
2023-05-09T03:48:50.851Z,4.68
2023-05-09T03:49:52.709Z,4.71
2023-05-09T03:50:54.897Z,4.19
2023-05-09T03:51:56.734Z,4.47
2023-05-09T03:52:58.571Z,4.67
2023-05-09T03:54:00.465Z,4.57
2023-05-09T03:55:03.121Z,4.65
2023-05-09T03:56:05.891Z,4.60
2023-05-09T03:57:07.759Z,4.45
2023-05-09T03:58:11.940Z,4.35
2023-05-09T03:59:13.899Z,4.92
2023-05-09T04:00:17.486Z,4.51
2023-05-09T04:01:21.104Z,4.72
2023-05-09T04:02:23.466Z,5.15
2023-05-09T04:03:26.003Z,4.82
2023-05-09T04:04:28.006Z,5.19
2023-05-09T04:05:30.279Z,4.49
2023-05-09T04:06:33.176Z,5.14
2023-05-09T04:07:35.004Z,4.55
2023-05-09T04:08:37.507Z,4.84
2023-05-09T04:09:39.397Z,5.13
2023-05-09T04:10:41.376Z,5.03
2023-05-09T04:11:43.253Z,4.86
2023-05-09T04:12:45.109Z,5.06
2023-05-09T04:13:47.058Z,5.19
2023-05-09T04:14:49.278Z,4.99
2023-05-09T04:15:51.592Z,4.27
2023-05-09T04:16:53.567Z,4.60
2023-05-09T04:17:56.042Z,4.13
2023-05-09T04:18:58.575Z,4.87
2023-05-09T04:20:00.427Z,4.88
2023-05-09T04:21:02.303Z,4.42
2023-05-09T04:22:04.144Z,4.73
2023-05-09T04:23:05.975Z,4.60
2023-05-09T04:24:08.145Z,4.83
2023-05-09T04:25:10.004Z,4.74
2023-05-09T04:26:12.374Z,4.50
2023-05-09T04:27:14.237Z,4.51
2023-05-09T04:28:16.494Z,4.99
2023-05-09T04:29:18.396Z,4.66
2023-05-09T04:30:20.351Z,5.13
2023-05-09T04:31:22.380Z,4.55
2023-05-09T04:32:24.406Z,5.33
2023-05-09T04:33:26.369Z,5.36
2023-05-09T04:34:30.153Z,5.22
2023-05-09T04:35:32.318Z,5.36
2023-05-09T04:36:34.337Z,5.43
2023-05-09T04:37:36.249Z,5.41
2023-05-09T04:38:38.176Z,5.23
2023-05-09T04:39:40.254Z,4.83
2023-05-09T04:40:42.328Z,4.63
2023-05-09T04:41:44.520Z,5.00
2023-05-09T04:42:46.368Z,5.44
2023-05-09T04:43:48.231Z,4.66
2023-05-09T04:44:50.106Z,4.46
2023-05-09T04:45:51.978Z,4.89
2023-05-09T04:46:54.145Z,4.63
2023-05-09T04:47:56.013Z,3.96
2023-05-09T04:48:57.980Z,4.64
2023-05-09T04:50:00.096Z,4.23
2023-05-09T04:51:02.018Z,3.67
2023-05-09T04:52:05.266Z,3.96
2023-05-09T04:53:07.142Z,4.25
2023-05-09T04:54:09.017Z,3.79
2023-05-09T04:55:11.018Z,4.27
2023-05-09T04:56:12.984Z,4.07
2023-05-09T04:57:18.358Z,3.95
2023-05-09T04:58:18.602Z,4.69
2023-05-09T04:59:20.486Z,4.23
2023-05-09T05:00:23.992Z,4.61
2023-05-09T05:01:26.134Z,3.84
2023-05-09T05:02:28.087Z,4.06
2023-05-09T05:03:30.120Z,4.41
2023-05-09T05:04:32.209Z,3.96
2023-05-09T05:05:36.977Z,4.21
2023-05-09T05:06:37.956Z,3.74
2023-05-09T05:07:39.853Z,4.23
2023-05-09T05:08:41.824Z,4.57
2023-05-09T05:09:43.684Z,4.26
2023-05-09T05:10:45.652Z,4.25
2023-05-09T05:11:59.500Z,4.42
2023-05-09T05:12:51.834Z,3.91
2023-05-09T05:13:54.348Z,4.41
2023-05-09T05:14:56.209Z,4.23
2023-05-09T05:15:58.195Z,4.19
2023-05-09T05:17:00.367Z,4.43
2023-05-09T05:18:02.282Z,4.51
2023-05-09T05:19:04.306Z,4.27
2023-05-09T05:20:07.354Z,4.41
2023-05-09T05:21:11.481Z,4.01
2023-05-09T05:22:13.550Z,4.16
2023-05-09T05:23:15.435Z,3.27
2023-05-09T05:24:17.260Z,3.97
2023-05-09T05:25:19.401Z,3.29
2023-05-09T05:26:21.328Z,3.55
2023-05-09T05:27:23.481Z,3.07
2023-05-09T05:28:25.324Z,3.03
2023-05-09T05:29:27.390Z,2.59
2023-05-09T05:30:31.119Z,2.87
2023-05-09T05:31:33.792Z,3.36
2023-05-09T05:32:35.896Z,2.81
2023-05-09T05:33:38.049Z,2.43
2023-05-09T05:34:40.020Z,2.44
2023-05-09T05:35:42.861Z,2.19
2023-05-09T05:36:46.145Z,2.43
2023-05-09T05:37:49.177Z,2.30
2023-05-09T05:38:51.214Z,2.46
2023-05-09T05:39:53.050Z,2.65
2023-05-09T05:40:55.201Z,2.96
2023-05-09T05:41:57.340Z,3.21
2023-05-09T05:42:59.267Z,2.86
2023-05-09T05:44:01.127Z,2.97
2023-05-09T05:45:03.303Z,3.55
2023-05-09T05:46:05.339Z,2.72
2023-05-09T05:47:07.260Z,2.37
2023-05-09T05:48:09.136Z,2.99
2023-05-09T05:49:11.155Z,2.45
2023-05-09T05:50:13.350Z,3.42
2023-05-09T05:51:15.246Z,2.71
2023-05-09T05:52:17.544Z,2.91
2023-05-09T05:53:19.401Z,2.71
2023-05-09T05:54:21.273Z,3.24
2023-05-09T05:55:23.257Z,2.45
2023-05-09T05:56:25.338Z,2.94
2023-05-09T05:57:27.230Z,3.23
2023-05-09T05:58:29.152Z,2.83
2023-05-09T05:59:31.082Z,2.93
2023-05-09T06:00:33.037Z,3.30
2023-05-09T06:01:35.005Z,3.27
2023-05-09T06:02:36.987Z,2.91
2023-05-09T06:03:39.301Z,2.74
2023-05-09T06:04:41.693Z,2.88
2023-05-09T06:05:45.942Z,3.26
2023-05-09T06:06:48.203Z,2.62
2023-05-09T06:07:50.065Z,2.75
2023-05-09T06:08:52.060Z,2.61
2023-05-09T06:09:54.020Z,2.58
2023-05-09T06:10:56.077Z,2.84
2023-05-09T06:11:57.956Z,2.97
2023-05-09T06:12:59.841Z,2.51
2023-05-09T06:14:01.829Z,2.87
2023-05-09T06:15:04.638Z,2.77
2023-05-09T06:16:17.955Z,3.18
2023-05-09T06:17:12.871Z,2.41
2023-05-09T06:18:14.932Z,2.49
2023-05-09T06:19:17.448Z,3.29
2023-05-09T06:20:19.622Z,2.43
2023-05-09T06:21:21.491Z,2.85
2023-05-09T06:22:23.463Z,3.26
2023-05-09T06:23:25.290Z,2.49
2023-05-09T06:24:35.716Z,2.23
2023-05-09T06:25:30.933Z,2.51
2023-05-09T06:26:33.082Z,2.81
2023-05-09T06:27:35.072Z,2.89
2023-05-09T06:28:37.083Z,2.44
2023-05-09T06:29:38.964Z,2.48
2023-05-09T06:30:41.021Z,2.30
2023-05-09T06:31:42.895Z,2.07
2023-05-09T06:32:44.931Z,2.57
2023-05-09T06:33:46.839Z,2.47
2023-05-09T06:34:48.697Z,2.87
2023-05-09T06:35:50.699Z,2.43
2023-05-09T06:36:52.685Z,2.69
2023-05-09T06:37:54.506Z,3.00
2023-05-09T06:38:56.388Z,3.41
2023-05-09T06:39:58.350Z,3.00
2023-05-09T06:41:00.338Z,2.41
2023-05-09T06:42:02.271Z,2.31
2023-05-09T06:43:04.213Z,2.45
2023-05-09T06:44:06.091Z,2.32
2023-05-09T06:45:09.558Z,2.27
2023-05-09T06:46:11.649Z,1.92
2023-05-09T06:47:13.683Z,2.52
2023-05-09T06:48:15.554Z,2.43
2023-05-09T06:49:17.522Z,2.09
2023-05-09T06:50:19.498Z,1.88
2023-05-09T06:51:21.383Z,1.83
2023-05-09T06:52:23.601Z,1.69
2023-05-09T06:53:25.645Z,2.74
2023-05-09T06:54:27.588Z,2.23
2023-05-09T06:55:30.295Z,2.62
2023-05-09T06:56:32.367Z,2.38
2023-05-09T06:57:34.322Z,1.74
2023-05-09T06:58:36.522Z,2.10
2023-05-09T06:59:38.489Z,1.69
2023-05-09T07:00:40.446Z,1.79
2023-05-09T07:01:42.348Z,1.52
2023-05-09T07:02:44.412Z,1.98
2023-05-09T07:03:47.691Z,1.88
2023-05-09T07:04:49.944Z,1.76
2023-05-09T07:05:51.976Z,2.07
2023-05-09T07:06:54.017Z,1.60
2023-05-09T07:07:55.987Z,1.44
2023-05-09T07:08:58.380Z,1.42
2023-05-09T07:10:10.510Z,1.57
2023-05-09T07:11:04.506Z,1.61
2023-05-09T07:12:07.867Z,1.45
2023-05-09T07:13:10.297Z,1.68
2023-05-09T07:14:12.222Z,1.55
2023-05-09T07:15:16.902Z,1.82
2023-05-09T07:16:18.050Z,1.89
2023-05-09T07:17:23.384Z,1.71
2023-05-09T07:18:24.292Z,1.47
2023-05-09T07:19:26.196Z,1.26
2023-05-09T07:20:28.269Z,1.51
2023-05-09T07:21:30.162Z,1.33
2023-05-09T07:22:34.180Z,1.63
2023-05-09T07:23:36.283Z,1.28
2023-05-09T07:24:38.618Z,1.48
2023-05-09T07:25:40.523Z,1.49
2023-05-09T07:26:42.482Z,1.63
2023-05-09T07:27:44.597Z,1.31
2023-05-09T07:28:46.542Z,1.28
2023-05-09T07:29:48.461Z,1.59
2023-05-09T07:30:50.434Z,1.66
2023-05-09T07:31:52.598Z,1.45
2023-05-09T07:32:54.560Z,1.68
2023-05-09T07:33:58.021Z,1.50
2023-05-09T07:35:00.065Z,2.13
2023-05-09T07:36:02.252Z,1.28
2023-05-09T07:37:04.683Z,1.26
2023-05-09T07:38:06.672Z,1.52
2023-05-09T07:39:08.565Z,1.20
2023-05-09T07:40:12.293Z,1.47
2023-05-09T07:41:14.423Z,1.71
2023-05-09T07:42:16.348Z,2.01
2023-05-09T07:43:18.816Z,1.37
2023-05-09T07:44:20.791Z,1.30
2023-05-09T07:45:23.884Z,1.22
2023-05-09T07:46:26.224Z,1.16
2023-05-09T07:47:28.351Z,1.51
2023-05-09T07:48:30.265Z,1.31
2023-05-09T07:49:32.474Z,1.17
2023-05-09T07:50:34.546Z,1.31
2023-05-09T07:51:36.744Z,1.41
2023-05-09T07:52:38.678Z,1.76
2023-05-09T07:53:40.614Z,1.67
2023-05-09T07:54:43.179Z,1.46
2023-05-09T07:55:45.070Z,1.51
2023-05-09T07:56:47.022Z,1.42
2023-05-09T07:57:48.862Z,1.65
2023-05-09T07:58:50.743Z,1.35
2023-05-09T07:59:52.692Z,1.37
2023-05-09T08:00:56.228Z,1.68
2023-05-09T08:01:58.367Z,1.77
2023-05-09T08:03:00.403Z,1.21
2023-05-09T08:04:02.546Z,1.47
2023-05-09T08:05:06.348Z,1.37
2023-05-09T08:06:08.980Z,1.62
2023-05-09T08:07:10.956Z,1.42
2023-05-09T08:08:12.928Z,1.31
2023-05-09T08:09:14.876Z,1.72
2023-05-09T08:10:16.824Z,1.07
2023-05-09T08:11:19.910Z,1.14
2023-05-09T08:12:21.776Z,0.87
2023-05-09T08:13:24.276Z,0.91
2023-05-09T08:14:26.329Z,1.35
2023-05-09T08:15:28.436Z,1.27
2023-05-09T08:16:30.513Z,1.19
2023-05-09T08:17:32.511Z,1.29
2023-05-09T08:18:34.545Z,1.18
2023-05-09T08:19:36.379Z,1.27
2023-05-09T08:20:38.332Z,1.22
2023-05-09T08:21:40.245Z,1.25
2023-05-09T08:22:43.730Z,1.05
2023-05-09T08:23:45.682Z,1.39
2023-05-09T08:24:47.628Z,1.35
2023-05-09T08:25:54.174Z,1.15
2023-05-09T08:26:56.219Z,1.42
2023-05-09T08:27:58.495Z,1.29
2023-05-09T08:29:00.759Z,1.33
2023-05-09T08:30:03.522Z,1.71
2023-05-09T08:31:05.808Z,1.49
2023-05-09T08:32:08.718Z,1.53
2023-05-09T08:33:10.724Z,1.16
2023-05-09T08:34:12.648Z,1.56
2023-05-09T08:35:16.113Z,1.53
2023-05-09T08:36:18.515Z,1.56
2023-05-09T08:37:20.377Z,1.75
2023-05-09T08:38:22.671Z,1.26
2023-05-09T08:39:25.078Z,1.19
2023-05-09T08:40:27.136Z,1.49
2023-05-09T08:41:31.744Z,1.32
2023-05-09T08:42:36.382Z,1.46
2023-05-09T08:43:40.125Z,1.49
2023-05-09T08:44:42.013Z,1.49
2023-05-09T08:45:53.636Z,1.35
2023-05-09T08:47:01.553Z,1.16
2023-05-09T08:48:04.437Z,1.69
2023-05-09T08:49:07.226Z,0.98
2023-05-09T08:50:09.909Z,1.27
2023-05-09T08:51:12.494Z,1.13
2023-05-09T08:52:14.864Z,1.11
2023-05-09T08:53:17.464Z,2.23
2023-05-09T08:54:22.882Z,1.33
2023-05-09T08:55:25.619Z,1.42
2023-05-09T08:57:41.170Z,1.33
2023-05-09T08:58:44.205Z,1.46
2023-05-09T08:59:48.637Z,1.16
2023-05-09T09:00:51.215Z,1.42
2023-05-09T09:01:53.737Z,1.29
2023-05-09T09:02:58.897Z,1.71
2023-05-09T09:04:04.395Z,1.28
2023-05-09T09:05:10.039Z,1.31
2023-05-09T09:06:11.429Z,1.48
2023-05-09T09:07:15.464Z,1.13
2023-05-09T09:08:17.829Z,1.21
2023-05-09T09:09:20.486Z,1.21
2023-05-09T09:10:23.357Z,1.21
2023-05-09T09:11:26.930Z,1.17
2023-05-09T09:12:29.318Z,1.05
2023-05-09T09:13:34.922Z,1.51
2023-05-09T09:14:40.543Z,1.57
2023-05-09T09:15:44.676Z,1.48
2023-05-09T09:16:49.296Z,1.74
2023-05-09T09:17:54.307Z,1.97
2023-05-09T09:18:58.932Z,2.81
2023-05-09T09:20:04.676Z,2.16
2023-05-09T09:21:09.440Z,2.18
2023-05-09T09:22:14.809Z,1.93
2023-05-09T09:23:19.220Z,2.08
2023-05-09T09:24:22.602Z,1.28
2023-05-09T09:25:24.733Z,1.42
2023-05-09T09:26:26.695Z,1.43
2023-05-09T09:27:28.760Z,1.65
2023-05-09T09:28:31.346Z,1.27
2023-05-09T09:29:34.271Z,1.46
2023-05-09T09:30:44.650Z,1.42
2023-05-09T09:31:49.439Z,1.17
2023-05-09T09:32:51.509Z,1.11
2023-05-09T09:34:03.286Z,1.15
2023-05-09T09:35:10.099Z,1.17
2023-05-09T09:36:12.161Z,1.15
2023-05-09T09:37:23.802Z,0.99
2023-05-09T09:38:25.871Z,1.26
2023-05-09T09:39:27.730Z,1.33
2023-05-09T09:40:29.705Z,1.74
2023-05-09T09:41:33.356Z,1.85
2023-05-09T09:42:44.129Z,1.72
2023-05-09T09:43:46.019Z,1.46
2023-05-09T09:44:56.904Z,1.58
2023-05-09T09:46:03.551Z,1.35
2023-05-09T09:47:09.372Z,2.52
2023-05-09T09:48:11.270Z,1.97
2023-05-09T09:49:15.095Z,1.76
2023-05-09T09:50:18.903Z,1.87
2023-05-09T09:51:20.894Z,1.76
2023-05-09T09:52:23.952Z,1.66
2023-05-09T09:53:28.912Z,1.22
2023-05-09T09:54:31.504Z,1.41
2023-05-09T09:55:34.726Z,1.55
2023-05-09T09:56:45.007Z,1.31
2023-05-09T09:57:47.905Z,1.21
2023-05-09T09:58:49.897Z,1.52
2023-05-09T10:00:00.255Z,1.27
2023-05-09T10:01:11.642Z,1.21
2023-05-09T10:02:13.712Z,1.14
2023-05-09T10:03:16.875Z,1.07
2023-05-09T10:04:19.172Z,1.55
2023-05-09T10:05:28.580Z,1.31
2023-05-09T10:06:30.972Z,1.30
2023-05-09T10:07:34.653Z,1.49
2023-05-09T10:08:36.767Z,1.33
2023-05-09T10:09:38.758Z,1.23
2023-05-09T10:10:41.615Z,1.09
2023-05-09T10:11:45.395Z,1.19
2023-05-09T10:12:50.941Z,1.28
2023-05-09T10:13:53.331Z,1.31
2023-05-09T10:14:55.837Z,1.13
2023-05-09T10:15:59.970Z,1.51
2023-05-09T10:17:04.186Z,1.79
2023-05-09T10:18:08.178Z,1.44
2023-05-09T10:19:12.637Z,1.27
2023-05-09T10:20:17.852Z,1.48
2023-05-09T10:21:19.945Z,1.40
2023-05-09T10:22:23.122Z,1.23
2023-05-09T10:23:25.572Z,0.99
2023-05-09T10:24:46.355Z,1.21
2023-05-09T10:27:08.226Z,1.38
2023-05-09T10:28:12.132Z,1.39
2023-05-09T10:29:15.596Z,1.18
2023-05-09T10:30:20.214Z,1.43
2023-05-09T10:31:30.384Z,1.59
2023-05-09T10:32:58.926Z,1.64
2023-05-09T10:34:03.394Z,1.21
2023-05-09T10:35:07.487Z,1.21
2023-05-09T10:36:11.358Z,1.29
2023-05-09T10:37:14.957Z,1.32
2023-05-09T10:38:18.019Z,1.29
2023-05-09T10:39:21.184Z,1.34
2023-05-09T10:40:23.704Z,1.37
2023-05-09T10:41:27.211Z,1.32
2023-05-09T10:42:30.115Z,1.39
2023-05-09T10:43:34.235Z,1.52
2023-05-09T10:44:38.106Z,1.11
2023-05-09T10:45:41.090Z,1.44
2023-05-09T10:46:44.959Z,1.28
2023-05-09T10:47:49.546Z,1.41
2023-05-09T10:48:51.602Z,1.32
2023-05-09T10:49:54.197Z,1.13
2023-05-09T10:50:57.070Z,1.56
2023-05-09T10:51:58.962Z,1.13
2023-05-09T10:53:06.801Z,1.28
2023-05-09T10:55:27.834Z,1.11
2023-05-09T10:56:32.829Z,1.41
2023-05-09T10:57:38.394Z,1.53
2023-05-09T10:58:40.395Z,1.38
2023-05-09T10:59:43.270Z,1.39
2023-05-09T11:00:47.913Z,1.42
2023-05-09T11:01:53.770Z,1.54
2023-05-09T11:03:08.298Z,1.34
2023-05-09T11:04:13.217Z,1.80
2023-05-09T11:05:18.696Z,1.38
2023-05-09T11:06:46.921Z,1.44
2023-05-09T11:07:52.668Z,1.21
2023-05-09T11:08:54.557Z,1.55
2023-05-09T11:10:11.613Z,1.19
2023-05-09T11:11:17.395Z,1.58
2023-05-09T11:12:20.420Z,1.21
2023-05-09T11:13:24.982Z,1.67
2023-05-09T11:14:32.518Z,1.51
2023-05-09T11:15:36.107Z,1.57
2023-05-09T11:16:41.854Z,1.29
2023-05-09T11:17:43.981Z,1.06
2023-05-09T11:18:51.160Z,1.29
2023-05-09T11:19:59.196Z,1.39
2023-05-09T11:21:09.510Z,1.28
2023-05-09T11:22:17.032Z,1.45
2023-05-09T11:23:20.192Z,1.61
2023-05-09T11:24:22.622Z,1.76
2023-05-09T11:25:25.635Z,2.20
2023-05-09T11:26:28.876Z,1.42
2023-05-09T11:27:43.831Z,2.19
2023-05-09T11:28:53.442Z,3.29
2023-05-09T11:29:58.052Z,1.37
2023-05-09T11:31:12.158Z,1.68
2023-05-09T11:32:14.360Z,1.53
2023-05-09T11:33:26.006Z,1.22
2023-05-09T11:34:29.162Z,1.07
2023-05-09T11:35:31.060Z,1.26
2023-05-09T11:36:33.382Z,0.97
2023-05-09T11:37:50.782Z,1.09
2023-05-09T11:39:04.797Z,1.13
2023-05-09T11:40:11.273Z,1.36
2023-05-09T11:41:14.610Z,1.18
2023-05-09T11:42:17.424Z,0.89
2023-05-09T11:43:19.671Z,1.29
2023-05-09T11:44:21.540Z,1.22
2023-05-09T11:45:29.052Z,1.10
2023-05-09T11:46:31.097Z,1.17
2023-05-09T11:47:36.245Z,0.97
2023-05-09T11:48:39.497Z,1.19
2023-05-09T11:49:44.414Z,1.26
2023-05-09T11:50:46.910Z,1.19
2023-05-09T11:51:48.752Z,1.95
2023-05-09T11:52:51.271Z,1.41
2023-05-09T11:53:53.188Z,1.05
2023-05-09T11:54:55.081Z,1.45
2023-05-09T11:55:57.332Z,1.37
2023-05-09T11:56:59.297Z,1.47
2023-05-09T11:58:01.182Z,1.29
2023-05-09T11:59:03.552Z,0.99
2023-05-09T12:00:06.967Z,1.57
2023-05-09T12:01:12.017Z,1.99
2023-05-09T12:02:14.762Z,1.56
2023-05-09T12:03:16.995Z,1.31
2023-05-09T12:04:19.208Z,1.22
2023-05-09T12:05:23.675Z,1.11
2023-05-09T12:06:25.882Z,1.20
2023-05-09T12:07:30.001Z,1.16
2023-05-09T12:08:32.010Z,2.19
2023-05-09T12:09:35.068Z,1.45
2023-05-09T12:10:38.482Z,1.17
2023-05-09T12:11:50.093Z,1.44
2023-05-09T12:12:52.946Z,1.89
2023-05-09T12:13:55.064Z,1.67
2023-05-09T12:15:00.706Z,1.87
2023-05-09T12:16:03.122Z,1.58
2023-05-09T12:17:08.088Z,2.01
2023-05-09T12:18:10.248Z,1.39
2023-05-09T12:19:12.335Z,1.63
2023-05-09T12:20:14.804Z,1.54
2023-05-09T12:21:18.229Z,1.39
2023-05-09T12:22:20.112Z,1.14
2023-05-09T12:23:21.996Z,1.40
2023-05-09T12:24:25.547Z,0.96
2023-05-09T12:25:27.579Z,1.34
2023-05-09T12:26:29.620Z,1.29
2023-05-09T12:27:32.320Z,1.13
2023-05-09T12:28:34.780Z,1.00
2023-05-09T12:29:36.995Z,1.17
2023-05-09T12:30:39.321Z,1.37
2023-05-09T12:31:42.227Z,1.23
2023-05-09T12:32:44.523Z,1.27
2023-05-09T12:33:46.602Z,2.19
2023-05-09T12:34:48.712Z,1.39
2023-05-09T12:36:06.343Z,1.48
2023-05-09T12:38:24.904Z,4.33
2023-05-09T12:39:27.665Z,2.69
2023-05-09T12:40:29.828Z,3.13
2023-05-09T12:41:39.254Z,2.81
2023-05-09T12:42:35.628Z,2.01
2023-05-09T12:43:38.364Z,4.11
2023-05-09T12:44:40.322Z,1.48
2023-05-09T12:45:42.193Z,1.34
2023-05-09T12:46:53.033Z,1.12
2023-05-09T12:47:56.469Z,1.25
2023-05-09T12:48:58.484Z,1.27
2023-05-09T12:50:02.345Z,1.17
2023-05-09T12:51:05.762Z,1.23
2023-05-09T12:52:11.520Z,1.11
2023-05-09T12:53:17.158Z,1.41
2023-05-09T12:56:57.994Z,1.27
2023-05-09T12:58:03.399Z,1.19
2023-05-09T12:59:09.321Z,1.17
2023-05-09T13:00:12.757Z,1.13
2023-05-09T13:01:15.312Z,1.12
2023-05-09T13:02:17.647Z,1.31
2023-05-09T13:03:26.392Z,1.07
2023-05-09T13:04:28.389Z,1.23
2023-05-09T13:05:31.241Z,1.67
2023-05-09T13:06:34.259Z,1.35
2023-05-09T13:07:44.343Z,1.12
2023-05-09T13:08:50.043Z,1.38
2023-05-09T13:09:55.282Z,1.72
2023-05-09T13:11:14.799Z,1.23
2023-05-09T13:12:04.801Z,1.25
2023-05-09T13:13:06.980Z,1.40
2023-05-09T13:14:09.096Z,0.97
2023-05-09T13:15:11.420Z,1.16
2023-05-09T13:16:16.672Z,1.27
2023-05-09T13:17:17.372Z,1.15
2023-05-09T13:18:20.328Z,1.64
2023-05-09T13:19:22.345Z,1.31
2023-05-09T13:20:24.614Z,1.41
2023-05-09T13:21:26.899Z,1.46
2023-05-09T13:22:28.814Z,1.35
2023-05-09T13:23:30.807Z,1.09
2023-05-09T13:24:32.985Z,1.37
2023-05-09T13:25:34.929Z,1.54
2023-05-09T13:26:36.989Z,1.49
2023-05-09T13:27:39.238Z,1.59
2023-05-09T13:28:41.215Z,1.29
2023-05-09T13:29:43.161Z,1.39
2023-05-09T13:30:45.273Z,1.65
2023-05-09T13:31:47.229Z,1.64
2023-05-09T13:32:49.259Z,1.63
2023-05-09T13:33:52.315Z,1.42
2023-05-09T13:34:54.876Z,1.05
2023-05-09T13:35:56.869Z,1.11
2023-05-09T13:36:59.251Z,1.52
2023-05-09T13:38:01.201Z,1.27
2023-05-09T13:39:03.210Z,1.26
2023-05-09T13:40:06.876Z,1.47
2023-05-09T13:41:09.582Z,1.45
2023-05-09T13:42:11.446Z,1.41
2023-05-09T13:43:13.350Z,2.06
2023-05-09T13:44:15.409Z,1.04
2023-05-09T13:45:17.789Z,1.12
2023-05-09T13:46:19.784Z,1.13
2023-05-09T13:47:22.011Z,1.32
2023-05-09T13:48:24.797Z,1.27
2023-05-09T13:49:26.982Z,1.11
2023-05-09T13:50:28.953Z,1.53
2023-05-09T13:51:30.827Z,1.15
2023-05-09T13:52:32.694Z,1.09
2023-05-09T13:53:36.737Z,1.24
2023-05-09T13:54:38.893Z,0.82
2023-05-09T13:55:40.762Z,1.04
2023-05-09T13:56:42.858Z,1.27
2023-05-09T13:57:44.827Z,1.54
2023-05-09T13:58:46.775Z,1.19
2023-05-09T13:59:48.639Z,1.35
2023-05-09T14:00:50.610Z,1.07
2023-05-09T14:01:52.531Z,1.29
2023-05-09T14:02:54.718Z,1.21
2023-05-09T14:03:56.743Z,1.25
2023-05-09T14:04:58.710Z,1.43
2023-05-09T14:06:00.590Z,1.49
2023-05-09T14:07:03.053Z,1.37
2023-05-09T14:08:04.999Z,1.19
2023-05-09T14:09:06.882Z,0.99
2023-05-09T14:10:11.819Z,1.13
2023-05-09T14:11:13.186Z,1.15
2023-05-09T14:12:15.511Z,1.29
2023-05-09T14:13:17.601Z,1.46
2023-05-09T14:14:22.877Z,1.21
2023-05-09T14:15:24.868Z,1.31